Time;durP1;ratioP1;P1;durP2;ratioP2;P2;SDS_P1;SDS_P2;PMS_P1;PMS_P2;Temp;Humidity;BMP_temperature;BMP_pressure;BME280_temperature;BME280_humidity;BME280_pressure;Samples;Min_cycle;Max_cycle;Signal;HPM_P1;HPM_P2
2023/09/17 00:01:28;;;;;;;;;;;;;;;;;;;;;
2023/09/17 00:04:30;;;;;;;8.75;4.97;;;22.60;92.50;;;;;;7389817;19;20086;-81
2023/09/17 00:22:21;;;;;;;;;;;;;;;;;;;;;
2023/09/17 00:25:37;;;;;;;;;;;;;;;;;;;;;
2023/09/17 00:56:41;;;;;;;13.45;5.00;;;22.30;92.70;;;;;;7416319;19;20032;-80
2023/09/17 01:05:43;;;;;;;8.00;4.57;;;22.30;92.30;;;;;;7420489;19;20386;-78
2023/09/17 01:08:12;;;;;;;9.73;4.85;;;22.20;92.30;;;;;;7449345;19;20013;-79
2023/09/17 01:10:42;;;;;;;6.13;4.72;;;22.20;92.40;;;;;;7440030;19;20337;-79
2023/09/17 01:13:12;;;;;;;7.95;4.30;;;22.30;92.50;;;;;;7440395;19;20014;-79
2023/09/17 01:15:43;;;;;;;7.82;4.47;;;22.20;92.40;;;;;;7439121;19;20006;-79
2023/09/17 01:18:12;;;;;;;8.15;4.88;;;22.20;92.30;;;;;;7434466;19;20014;-79
2023/09/17 01:20:52;;;;;;;7.97;4.65;;;22.30;92.30;;;;;;7418538;19;20029;-79
2023/09/17 01:23:29;;;;;;;11.38;4.45;;;22.20;92.30;;;;;;7442611;19;20015;-79
2023/09/17 01:26:02;;;;;;;8.75;4.45;;;22.20;92.30;;;;;;7421979;19;20082;-78
2023/09/17 01:28:34;;;;;;;11.43;4.55;;;22.20;92.30;;;;;;7422992;19;20311;-78
2023/09/17 01:31:03;;;;;;;10.13;4.47;;;22.20;92.20;;;;;;7419487;19;20068;-78
2023/09/17 01:33:33;;;;;;;11.00;4.32;;;22.20;92.10;;;;;;7417919;19;20007;-78
2023/09/17 01:36:06;;;;;;;6.03;3.97;;;22.20;92.10;;;;;;7418065;19;20017;-78
2023/09/17 01:38:39;;;;;;;6.38;4.53;;;22.20;92.10;;;;;;7419666;19;20109;-77
2023/09/17 01:41:09;;;;;;;8.25;4.55;;;22.20;92.20;;;;;;7442244;19;20010;-77
2023/09/17 01:43:43;;;;;;;7.35;4.32;;;22.10;92.30;;;;;;7417860;19;20010;-77
2023/09/17 01:46:12;;;;;;;10.43;4.55;;;22.10;92.30;;;;;;7417866;19;20017;-77
2023/09/17 01:48:43;;;;;;;12.05;4.80;;;22.10;92.30;;;;;;7417825;19;20006;-77
2023/09/17 01:51:12;;;;;;;7.97;4.65;;;22.10;92.20;;;;;;7419363;19;20007;-78
2023/09/17 01:53:42;;;;;;;8.00;4.85;;;22.10;92.20;;;;;;7417028;19;20011;-79
2023/09/17 01:56:11;;;;;;;6.50;4.13;;;22.10;92.30;;;;;;7437330;19;20006;-78
2023/09/17 01:58:39;;;;;;;13.73;4.72;;;22.10;92.30;;;;;;7418772;19;20017;-78
2023/09/17 02:01:08;;;;;;;7.40;5.00;;;22.10;92.20;;;;;;7417368;19;20010;-79
2023/09/17 02:03:37;;;;;;;5.88;4.57;;;22.10;92.10;;;;;;7417708;19;20024;-79
2023/09/17 02:06:06;;;;;;;6.47;4.40;;;22.10;92.40;;;;;;7416764;19;19999;-79
2023/09/17 02:08:36;;;;;;;8.57;4.75;;;22.10;92.20;;;;;;7417284;19;20009;-78
2023/09/17 02:11:06;;;;;;;9.07;4.55;;;22.10;92.20;;;;;;7445040;19;20088;-78
2023/09/17 02:13:35;;;;;;;8.95;5.10;;;22.10;92.10;;;;;;7420287;19;20303;-78
2023/09/17 02:16:07;;;;;;;6.05;4.35;;;22.10;92.10;;;;;;7398380;19;20010;-78
2023/09/17 02:18:39;;;;;;;8.15;4.63;;;22.10;92.20;;;;;;7389071;19;20082;-78
2023/09/17 02:21:07;;;;;;;7.25;4.25;;;22.10;92.20;;;;;;7397552;19;20013;-79
2023/09/17 02:23:37;;;;;;;5.93;4.10;;;22.10;92.20;;;;;;7390756;19;20003;-78
2023/09/17 02:26:07;;;;;;;6.22;3.92;;;22.00;92.30;;;;;;7408110;19;20010;-80
2023/09/17 02:28:35;;;;;;;13.10;4.30;;;22.00;92.10;;;;;;7389135;19;20016;-79
2023/09/17 02:31:09;;;;;;;7.47;4.72;;;22.00;91.90;;;;;;7387566;19;20010;-79
2023/09/17 02:33:38;;;;;;;6.82;4.40;;;22.00;91.80;;;;;;7387493;19;20027;-79
2023/09/17 02:36:07;;;;;;;11.30;4.38;;;22.00;91.90;;;;;;7387458;19;19999;-79
2023/09/17 02:38:37;;;;;;;6.80;4.55;;;22.00;92.00;;;;;;7389052;19;20011;-80
2023/09/17 02:41:06;;;;;;;7.20;4.50;;;22.00;92.10;;;;;;7410815;19;20066;-79
2023/09/17 02:43:36;;;;;;;10.38;4.40;;;22.00;92.10;;;;;;7388954;19;20027;-79
2023/09/17 02:46:07;;;;;;;8.20;4.57;;;22.00;92.00;;;;;;7388509;19;20022;-80
2023/09/17 02:48:36;;;;;;;8.02;4.65;;;22.00;91.90;;;;;;7388259;19;20326;-79
2023/09/17 02:51:05;;;;;;;6.93;4.57;;;22.00;92.00;;;;;;7390298;19;20007;-79
2023/09/17 02:53:34;;;;;;;9.73;5.00;;;21.90;92.00;;;;;;7390256;19;20018;-77
2023/09/17 02:56:04;;;;;;;9.50;5.03;;;21.90;92.10;;;;;;7408705;19;20233;-78
2023/09/17 02:58:33;;;;;;;7.85;4.50;;;21.90;92.00;;;;;;7387823;19;20007;-78
2023/09/17 03:01:04;;;;;;;8.45;4.38;;;21.90;91.90;;;;;;7386534;19;20007;-78
2023/09/17 03:03:38;;;;;;;;;;;21.90;92.00;;;;;;7391221;19;20010;-78
2023/09/17 03:06:08;;;;;;;8.50;4.93;;;21.90;92.00;;;;;;7388608;19;19915;-78
2023/09/17 03:08:41;;;;;;;8.52;4.45;;;21.90;91.90;;;;;;7386635;19;20279;-80
2023/09/17 03:11:10;;;;;;;8.32;5.22;;;21.90;92.00;;;;;;7416967;19;20023;-79
2023/09/17 03:13:46;;;;;;;11.27;4.60;;;21.90;92.10;;;;;;7394180;19;19999;-78
2023/09/17 03:16:15;;;;;;;9.50;4.57;;;21.80;92.10;;;;;;7394328;19;20054;-79
2023/09/17 03:18:47;;;;;;;9.68;4.25;;;21.90;92.20;;;;;;7391457;19;20074;-77
2023/09/17 03:21:18;;;;;;;8.18;4.63;;;21.80;92.20;;;;;;7385639;19;20003;-78
2023/09/17 03:23:47;;;;;;;7.63;4.75;;;21.80;92.20;;;;;;7386194;19;20009;-79
2023/09/17 03:26:15;;;;;;;17.05;5.05;;;21.80;92.40;;;;;;7405913;19;20002;-78
2023/09/17 03:28:44;;;;;;;8.95;4.60;;;21.80;92.40;;;;;;7383983;19;20014;-78
2023/09/17 03:31:13;;;;;;;5.85;4.45;;;21.80;92.40;;;;;;7386394;19;20030;-79
2023/09/17 03:33:42;;;;;;;9.40;4.50;;;21.80;92.50;;;;;;7387493;19;20026;-78
2023/09/17 03:36:13;;;;;;;8.35;4.78;;;21.80;92.40;;;;;;7389703;19;20248;-79
2023/09/17 03:38:42;;;;;;;24.30;13.18;;;21.80;92.50;;;;;;7388735;19;20071;-77
2023/09/17 03:41:11;;;;;;;22.92;13.45;;;21.80;92.40;;;;;;7407432;19;20006;-80
2023/09/17 03:43:39;;;;;;;27.85;12.02;;;21.80;92.30;;;;;;7387276;19;20011;-79
2023/09/17 03:46:08;;;;;;;11.43;5.75;;;21.80;92.10;;;;;;7390846;19;20006;-79
2023/09/17 03:48:38;;;;;;;7.78;4.65;;;21.80;92.10;;;;;;7388449;19;20007;-80
2023/09/17 03:51:07;;;;;;;11.98;4.72;;;21.80;92.00;;;;;;7385926;19;20405;-79
2023/09/17 03:53:38;;;;;;;15.65;5.40;;;21.80;92.10;;;;;;7385566;19;19999;-79
2023/09/17 03:56:08;;;;;;;12.32;5.13;;;21.80;92.00;;;;;;7406090;19;20010;-79
2023/09/17 03:58:37;;;;;;;6.47;5.05;;;21.80;92.00;;;;;;7385964;19;20342;-78
2023/09/17 04:01:07;;;;;;;8.77;4.55;;;21.80;91.90;;;;;;7386494;19;20022;-79
2023/09/17 04:03:37;;;;;;;10.60;4.60;;;21.80;91.90;;;;;;7386709;19;20408;-78
2023/09/17 04:06:06;;;;;;;8.20;4.90;;;21.70;92.00;;;;;;7385108;19;20010;-79
2023/09/17 04:08:37;;;;;;;7.72;4.38;;;21.70;92.00;;;;;;7386344;19;20010;-78
2023/09/17 04:11:06;;;;;;;;;;;21.70;92.00;;;;;;7406336;19;20106;-79
2023/09/17 04:13:35;;;;;;;9.93;4.72;;;21.70;92.10;;;;;;7386142;19;19914;-79
2023/09/17 04:16:04;;;;;;;9.20;4.90;;;21.70;92.10;;;;;;7389360;19;20258;-78
2023/09/17 04:18:33;;;;;;;9.55;4.57;;;21.70;92.10;;;;;;7388164;19;20013;-78
2023/09/17 04:21:02;;;;;;;10.93;4.60;;;21.60;92.30;;;;;;7385892;19;20003;-78
2023/09/17 04:23:31;;;;;;;10.00;4.80;;;21.60;92.30;;;;;;7384387;19;20007;-78
2023/09/17 04:26:02;;;;;;;8.55;4.68;;;21.60;92.30;;;;;;7404677;19;20021;-78
2023/09/17 04:28:32;;;;;;;10.95;4.82;;;21.60;92.10;;;;;;7389076;19;20006;-79
2023/09/17 04:31:01;;;;;;;12.38;4.65;;;21.60;92.10;;;;;;7388596;19;19998;-79
2023/09/17 04:33:29;;;;;;;7.22;4.70;;;21.60;92.10;;;;;;7384285;19;20027;-77
2023/09/17 04:35:59;;;;;;;10.88;5.43;;;21.60;92.20;;;;;;7385491;19;20440;-78
2023/09/17 04:38:28;;;;;;;10.88;5.07;;;21.60;92.30;;;;;;7383230;19;20034;-79
2023/09/17 04:40:57;;;;;;;7.30;4.95;;;21.50;92.40;;;;;;7406735;19;20017;-79
2023/09/17 04:43:28;;;;;;;9.43;5.18;;;21.50;92.50;;;;;;7383229;19;20006;-79
2023/09/17 04:46:00;;;;;;;;;;;21.50;92.50;;;;;;7386236;19;20006;-79
2023/09/17 04:48:29;;;;;;;8.55;4.80;;;21.60;92.20;;;;;;7384759;19;19907;-78
2023/09/17 04:50:58;;;;;;;9.45;4.40;;;21.50;92.10;;;;;;7383576;19;20390;-79
2023/09/17 04:53:27;;;;;;;10.07;5.05;;;21.50;92.10;;;;;;7385470;19;20035;-78
2023/09/17 04:55:58;;;;;;;11.93;5.75;;;21.50;92.30;;;;;;7403427;19;20002;-79
2023/09/17 04:58:29;;;;;;;;;;;21.50;92.30;;;;;;7388079;19;20007;-78
2023/09/17 05:00:58;;;;;;;6.00;4.30;;;21.50;92.30;;;;;;7387887;19;19906;-79
2023/09/17 05:03:27;;;;;;;7.32;4.32;;;21.50;92.20;;;;;;7383052;19;20011;-79
2023/09/17 05:05:56;;;;;;;8.15;4.68;;;21.50;92.10;;;;;;7382840;19;20030;-79
2023/09/17 05:08:25;;;;;;;10.07;4.03;;;21.50;92.00;;;;;;7389135;19;20011;-78
2023/09/17 05:10:54;;;;;;;8.80;4.28;;;21.50;91.90;;;;;;7424676;19;20013;-79
2023/09/17 05:13:23;;;;;;;11.70;4.43;;;21.40;92.00;;;;;;7406406;19;20007;-79
2023/09/17 05:15:54;;;;;;;8.68;4.60;;;21.40;92.00;;;;;;7406777;19;20035;-79
2023/09/17 05:18:23;;;;;;;6.50;4.47;;;21.40;91.90;;;;;;7404331;19;20007;-79
2023/09/17 05:20:53;;;;;;;14.10;5.10;;;21.40;92.00;;;;;;7385277;19;20138;-79
2023/09/17 05:23:22;;;;;;;8.35;4.68;;;21.40;92.10;;;;;;7403275;19;20010;-80
2023/09/17 05:25:51;;;;;;;11.68;4.72;;;21.40;92.10;;;;;;7403046;19;20007;-79
2023/09/17 05:28:21;;;;;;;9.57;4.50;;;21.40;92.10;;;;;;7382421;19;20007;-79
2023/09/17 05:30:51;;;;;;;9.15;4.70;;;21.40;92.00;;;;;;7384418;19;20011;-79
2023/09/17 05:33:23;;;;;;;10.68;4.68;;;21.40;92.00;;;;;;7384053;19;20007;-79
2023/09/17 05:35:56;;;;;;;;;;;21.40;92.00;;;;;;7382931;19;20027;-79
2023/09/17 05:38:26;;;;;;;8.38;4.65;;;21.40;92.00;;;;;;7383580;19;19913;-79
2023/09/17 05:40:56;;;;;;;7.63;4.40;;;21.40;91.90;;;;;;7406946;19;20414;-79
2023/09/17 05:43:29;;;;;;;11.93;4.50;;;21.40;91.90;;;;;;7386640;19;20011;-79
2023/09/17 05:45:59;;;;;;;12.77;4.72;;;21.40;91.90;;;;;;7383348;19;20003;-77
2023/09/17 05:48:30;;;;;;;9.32;4.35;;;21.40;92.00;;;;;;7383577;19;20070;-78
2023/09/17 05:50:59;;;;;;;10.52;4.38;;;21.40;92.00;;;;;;7386494;19;20023;-80
2023/09/17 05:53:28;;;;;;;16.77;4.75;;;21.40;92.00;;;;;;7393096;19;20026;-79
2023/09/17 05:55:57;;;;;;;5.57;4.30;;;21.40;91.90;;;;;;7420655;19;20011;-79
2023/09/17 05:58:26;;;;;;;14.27;4.68;;;21.30;91.90;;;;;;7391848;19;20266;-79
2023/09/17 06:00:55;;;;;;;7.93;4.68;;;21.30;92.00;;;;;;7395953;19;20002;-79
2023/09/17 06:03:24;;;;;;;10.00;4.25;;;21.30;92.00;;;;;;7389648;19;20007;-79
2023/09/17 06:05:56;;;;;;;12.35;4.88;;;21.30;92.00;;;;;;7387635;19;20003;-79
2023/09/17 06:08:28;;;;;;;7.15;4.40;;;21.30;92.00;;;;;;7387859;19;20002;-78
2023/09/17 06:10:57;;;;;;;9.27;4.47;;;21.30;92.10;;;;;;7411822;19;20018;-79
2023/09/17 06:13:25;;;;;;;8.15;4.75;;;21.30;92.20;;;;;;7388588;19;20014;-79
2023/09/17 06:15:54;;;;;;;13.65;4.70;;;21.30;92.20;;;;;;7388121;19;20006;-78
2023/09/17 06:18:23;;;;;;;8.55;4.68;;;21.30;92.20;;;;;;7390144;19;20024;-79
2023/09/17 06:20:56;;;;;;;5.18;4.47;;;21.40;92.20;;;;;;7387173;19;20030;-78
2023/09/17 06:23:25;;;;;;;7.22;4.60;;;21.40;92.00;;;;;;7389903;19;20006;-79
2023/09/17 06:25:54;;;;;;;7.30;5.00;;;21.40;92.10;;;;;;7411288;19;20350;-79
2023/09/17 06:28:22;;;;;;;6.03;4.80;;;21.40;92.30;;;;;;7390501;19;20003;-78
2023/09/17 06:30:51;;;;;;;9.05;5.25;;;21.50;92.40;;;;;;7389421;19;20254;-79
2023/09/17 06:33:23;;;;;;;10.77;6.60;;;21.50;92.40;;;;;;7391238;19;20003;-79
2023/09/17 06:35:52;;;;;;;12.75;7.03;;;21.50;92.40;;;;;;7391742;19;20014;-78
2023/09/17 06:38:23;;;;;;;11.60;6.15;;;21.60;92.40;;;;;;7408445;19;20002;-79
2023/09/17 06:40:52;;;;;;;10.90;5.75;;;21.60;92.40;;;;;;7388626;19;20031;-78
2023/09/17 06:43:20;;;;;;;8.93;5.32;;;21.60;92.50;;;;;;7388168;19;20014;-80
2023/09/17 06:45:49;;;;;;;9.10;4.75;;;21.70;92.50;;;;;;7387205;19;20011;-80
2023/09/17 06:48:18;;;;;;;7.32;4.72;;;21.70;92.50;;;;;;7388514;19;20017;-79
2023/09/17 06:50:47;;;;;;;7.85;5.35;;;21.70;92.50;;;;;;7386806;19;20422;-79
2023/09/17 06:53:16;;;;;;;6.20;4.55;;;21.80;92.50;;;;;;7407281;19;20369;-78
2023/09/17 06:55:49;;;;;;;13.15;5.47;;;21.80;92.50;;;;;;7388842;19;20002;-78
2023/09/17 06:58:18;;;;;;;7.88;4.88;;;21.80;92.50;;;;;;7388522;19;20002;-78
2023/09/17 07:00:47;;;;;;;11.60;4.90;;;21.90;92.60;;;;;;7387414;19;20006;-79
2023/09/17 07:03:15;;;;;;;13.95;5.03;;;21.90;92.60;;;;;;7388487;19;20214;-81
2023/09/17 07:05:44;;;;;;;15.57;7.53;;;22.00;92.70;;;;;;7390336;19;20030;-78
2023/09/17 07:08:13;;;;;;;11.32;5.85;;;22.00;92.80;;;;;;7413586;19;20010;-78
2023/09/17 07:10:42;;;;;;;10.75;5.68;;;22.00;92.80;;;;;;7408995;19;20026;-78
2023/09/17 07:13:14;;;;;;;9.48;4.95;;;22.00;92.80;;;;;;7406865;19;20002;-79
2023/09/17 07:15:43;;;;;;;14.05;5.20;;;22.00;92.90;;;;;;7406429;19;20022;-79
2023/09/17 07:21:37;;;;;;;10.07;5.55;;;22.00;93.10;;;;;;7387650;19;20011;-80
2023/09/17 09:09:36;;;;;;;8.60;4.60;;;23.70;92.80;;;;;;7302825;19;20010;31
2023/09/17 09:12:08;;;;;;;6.78;4.20;;;23.70;92.70;;;;;;7386016;19;20007;-79
2023/09/17 09:14:36;;;;;;;16.20;3.75;;;23.80;92.70;;;;;;7397480;19;20044;-78
2023/09/17 09:17:06;;;;;;;11.20;4.10;;;23.90;92.60;;;;;;7426239;19;20003;-77
2023/09/17 09:19:40;;;;;;;6.45;3.85;;;23.90;92.50;;;;;;7401622;19;20015;-79
2023/09/17 09:22:52;;;;;;;6.63;4.28;;;24.00;92.20;;;;;;7398481;19;20368;-80
2023/09/17 09:25:31;;;;;;;5.88;3.45;;;24.00;92.10;;;;;;7385342;19;20007;-84
2023/09/17 09:28:04;;;;;;;4.95;3.28;;;24.00;92.00;;;;;;7389793;19;20003;-78
2023/09/17 09:30:33;;;;;;;11.57;3.67;;;24.10;91.90;;;;;;7386359;19;20316;-77
2023/09/17 09:33:05;;;;;;;5.75;3.70;;;24.10;91.90;;;;;;7385660;19;20438;-83
2023/09/17 09:35:38;;;;;;;4.13;3.40;;;24.10;91.80;;;;;;7387914;19;20005;-80
2023/09/17 09:38:10;;;;;;;5.88;3.58;;;24.20;91.90;;;;;;7408089;19;20245;-78
2023/09/17 09:40:42;;;;;;;6.43;3.15;;;24.30;92.00;;;;;;7397047;19;20002;-81
2023/09/17 09:43:30;;;;;;;5.13;3.53;;;24.40;92.00;;;;;;7392247;19;20103;-80
2023/09/17 09:46:04;;;;;;;5.60;3.50;;;24.50;91.60;;;;;;7392107;19;20041;-79
2023/09/17 09:48:33;;;;;;;5.68;3.10;;;24.50;91.30;;;;;;7390944;19;20270;-79
2023/09/17 09:51:02;;;;;;;7.72;3.42;;;24.60;91.20;;;;;;7389930;19;20019;-79
2023/09/17 09:53:31;;;;;;;7.75;3.28;;;24.60;91.40;;;;;;7391788;19;20003;-79
2023/09/17 09:56:00;;;;;;;9.40;3.80;;;24.70;91.30;;;;;;7410802;19;20023;-79
2023/09/17 09:58:32;;;;;;;6.22;3.33;;;24.80;91.10;;;;;;7392518;19;20017;-79
2023/09/17 10:01:05;;;;;;;9.48;3.38;;;24.90;91.10;;;;;;7397223;19;20014;-78
2023/09/17 10:03:34;;;;;;;8.43;3.80;;;24.90;91.20;;;;;;7398510;19;20010;-80
2023/09/17 10:06:06;;;;;;;10.65;3.75;;;24.90;91.20;;;;;;7395146;19;20006;-79
2023/09/17 10:08:37;;;;;;;4.95;3.30;;;25.00;91.10;;;;;;7393786;19;20043;-79
2023/09/17 10:11:08;;;;;;;9.87;3.40;;;25.00;91.10;;;;;;7416855;19;20026;-82
2023/09/17 10:14:13;;;;;;;11.80;3.58;;;25.10;91.10;;;;;;7393860;19;20013;-84
2023/09/17 10:16:43;;;;;;;11.20;3.97;;;25.10;91.10;;;;;;7390864;19;20003;-79
2023/09/17 10:19:20;;;;;;;4.80;3.50;;;25.10;91.10;;;;;;7387475;19;20027;-78
2023/09/17 10:28:14;;;;;;;8.45;3.65;;;25.30;91.30;;;;;;7413095;19;20398;-76
2023/09/17 10:30:46;;;;;;;7.10;4.18;;;25.30;90.90;;;;;;7384880;19;20003;-78
2023/09/17 10:33:17;;;;;;;7.63;3.75;;;25.30;90.70;;;;;;7382677;19;20007;-76
2023/09/17 10:35:47;;;;;;;6.63;3.67;;;25.30;90.50;;;;;;7383613;19;20006;-77
2023/09/17 10:38:19;;;;;;;5.40;3.83;;;25.40;90.50;;;;;;7406426;19;20028;-77
2023/09/17 10:40:48;;;;;;;6.90;4.00;;;25.40;90.40;;;;;;7385130;19;20006;-76
2023/09/17 10:43:20;;;;;;;11.32;3.92;;;25.30;90.30;;;;;;7385575;19;20013;-77
2023/09/17 10:45:53;;;;;;;9.13;4.40;;;25.40;90.50;;;;;;7382399;19;20291;-76
2023/09/17 10:48:27;;;;;;;9.25;4.43;;;25.40;90.60;;;;;;7387162;19;20065;-78
2023/09/17 10:50:57;;;;;;;12.93;4.18;;;25.40;90.60;;;;;;7388537;19;20009;-77
2023/09/17 10:53:27;;;;;;;17.65;4.30;;;25.40;90.60;;;;;;7381710;19;20010;-76
2023/09/17 10:56:03;;;;;;;8.63;4.70;;;25.40;90.60;;;;;;7405109;19;20347;-76
2023/09/17 10:58:41;;;;;;;9.95;3.95;;;25.40;90.50;;;;;;7383280;19;20028;-78
2023/09/17 11:01:18;;;;;;;9.80;4.63;;;25.40;90.50;;;;;;7382476;19;20269;-76
2023/09/17 11:03:51;;;;;;;6.40;4.43;;;25.40;90.90;;;;;;7383981;19;20020;-78
2023/09/17 11:06:26;;;;;;;7.70;4.85;;;25.50;90.60;;;;;;7384660;19;20003;-78
2023/09/17 11:08:56;;;;;;;11.88;4.97;;;25.50;90.50;;;;;;7384907;19;20066;-77
2023/09/17 11:11:26;;;;;;;9.18;4.30;;;25.50;90.40;;;;;;7384195;19;20237;-77
2023/09/17 11:14:02;;;;;;;9.73;4.95;;;25.50;90.20;;;;;;7410925;19;20023;-81
2023/09/17 11:16:57;;;;;;;7.60;4.78;;;25.60;90.20;;;;;;7401602;19;20010;-80
2023/09/17 11:27:14;;;;;;;9.05;6.05;;;25.60;90.10;;;;;;7336019;19;20030;-77
2023/09/17 11:30:57;;;;;;;9.50;5.80;;;25.70;90.10;;;;;;7413906;19;20034;-81
2023/09/17 11:33:32;;;;;;;10.73;4.90;;;25.70;90.10;;;;;;7394557;19;20066;-80
2023/09/17 11:36:08;;;;;;;13.10;5.25;;;25.70;90.00;;;;;;7386052;19;19998;-79
2023/09/17 11:38:44;;;;;;;22.27;9.38;;;25.70;90.00;;;;;;7387101;19;20010;-79
2023/09/17 11:41:15;;;;;;;13.88;7.80;;;25.80;89.90;;;;;;7408523;19;20359;-79
2023/09/17 11:52:17;;;;;;;7.03;4.75;;;25.70;89.30;;;;;;7333668;19;20275;-78
2023/09/17 11:55:24;;;;;;;10.50;4.72;;;25.70;89.60;;;;;;7387335;19;20405;-79
2023/09/17 11:58:02;;;;;;;9.57;4.80;;;25.80;89.70;;;;;;7385204;19;20374;-79
2023/09/17 12:00:31;;;;;;;7.68;4.65;;;25.70;89.50;;;;;;7385428;19;20018;-77
2023/09/17 12:03:32;;;;;;;11.85;4.97;;;25.70;89.50;;;;;;7388648;19;20062;-81
2023/09/17 12:12:37;;;;;;;9.57;4.90;;;25.80;90.20;;;;;;7387691;19;20002;-80
2023/09/17 12:15:33;;;;;;;11.00;4.95;;;25.80;90.10;;;;;;7408136;19;20013;-82
2023/09/17 12:18:04;;;;;;;9.43;4.82;;;25.90;90.10;;;;;;7386039;19;20260;-81
2023/09/17 12:20:56;;;;;;;12.00;5.15;;;25.90;90.00;;;;;;7388539;19;20082;-80
2023/09/17 12:24:06;;;;;;;9.93;4.85;;;25.90;90.00;;;;;;7410002;19;20777;-82
2023/09/17 12:27:19;;;;;;;9.02;4.35;;;26.00;89.90;;;;;;7392099;19;20010;-74
2023/09/17 12:29:51;;;;;;;8.75;4.68;;;26.10;89.70;;;;;;7382826;19;20388;-76
2023/09/17 12:32:24;;;;;;;7.57;4.00;;;26.10;89.20;;;;;;7400268;19;20018;-77
2023/09/17 12:34:57;;;;;;;6.45;3.53;;;26.20;89.10;;;;;;7380633;19;20019;-79
2023/09/17 12:37:53;;;;;;;8.38;3.75;;;26.20;88.90;;;;;;7390429;19;20007;-82
2023/09/17 12:40:24;;;;;;;7.80;4.07;;;26.40;88.50;;;;;;7381032;19;20032;-77
2023/09/17 12:42:53;;;;;;;12.32;4.28;;;26.40;88.20;;;;;;7381306;19;20023;-78
2023/09/17 12:45:25;;;;;;;6.30;3.97;;;26.60;88.20;;;;;;7380425;19;20296;-77
2023/09/17 12:47:53;;;;;;;9.70;4.15;;;26.70;88.20;;;;;;7379282;19;20019;-76
2023/09/17 12:50:22;;;;;;;5.45;3.75;;;26.80;87.90;;;;;;7397836;19;20003;-77
2023/09/17 12:52:51;;;;;;;6.32;3.80;;;26.80;87.60;;;;;;7404267;19;20024;-77
2023/09/17 12:55:20;;;;;;;9.52;4.22;;;26.90;87.50;;;;;;7381917;19;20010;-77
2023/09/17 12:57:55;;;;;;;14.38;4.45;;;26.90;87.30;;;;;;7380196;19;20366;-77
2023/09/17 13:00:27;;;;;;;10.95;4.38;;;26.90;86.90;;;;;;7385295;19;20011;-75
2023/09/17 13:03:09;;;;;;;10.18;4.20;;;26.90;86.90;;;;;;7383995;19;20045;-78
2023/09/17 13:13:03;;;;;;;11.00;4.55;;;26.90;86.80;;;;;;7384816;19;20014;-82
2023/09/17 13:15:52;;;;;;;8.80;4.30;;;26.90;86.90;;;;;;7410055;19;20107;-83
2023/09/17 13:28:25;;;;;;;8.50;4.50;;;27.10;86.60;;;;;;7424845;19;19979;-82
2023/09/17 13:44:03;;;;;;;10.18;4.13;;;27.60;85.50;;;;;;7374505;19;20055;-81
2023/09/17 13:50:00;;;;;;;14.75;3.97;;;27.60;84.50;;;;;;7393182;19;20010;-81
2023/09/17 14:17:04;;;;;;;16.73;4.47;;;27.60;84.10;;;;;;7419978;19;20014;-79
2023/09/17 14:23:08;;;;;;;;;;;;;;;;;;;;;
2023/09/17 14:25:47;;;;;;;12.18;3.88;;;27.50;83.30;;;;;;7422093;19;20007;-80
2023/09/17 14:28:52;;;;;;;;;;;;;;;;;;;;;
2023/09/17 14:31:51;;;;;;;12.10;4.70;;;27.60;83.40;;;;;;7417355;19;20061;-80
2023/09/17 14:51:14;;;;;;;;;;;;;;;;;;;;;
2023/09/17 14:54:28;;;;;;;;;;;;;;;;;;;;;
2023/09/17 14:57:07;;;;;;;;;;;;;;;;;;;;;
2023/09/17 14:59:46;;;;;;;11.00;4.00;;;28.00;82.60;;;;;;7416930;19;20002;-80
2023/09/17 15:02:24;;;;;;;9.40;4.05;;;28.10;82.40;;;;;;7441040;19;20023;-80
2023/09/17 15:05:42;;;;;;;;;;;;;;;;;;;;;
2023/09/17 15:11:35;;;;;;;;;;;;;;;;;;;;;
2023/09/17 15:23:47;;;;;;;;;;;;;;;;;;;;;
2023/09/17 15:46:41;;;;;;;;;;;;;;;;;;;;;
2023/09/17 15:49:40;;;;;;;11.50;4.00;;;28.60;80.20;;;;;;7416047;19;20791;-81
2023/09/17 15:52:23;;;;;;;;;;;;;;;;;;;;;
2023/09/17 16:12:35;;;;;;;;;;;;;;;;;;;;;
2023/09/17 16:32:19;;;;;;;;;;;;;;;;;;;;;
2023/09/17 16:35:04;;;;;;;;;;;;;;;;;;;;;
2023/09/17 16:37:43;;;;;;;;;;;;;;;;;;;;;
2023/09/17 16:40:21;;;;;;;13.30;5.80;;;27.50;85.50;;;;;;7421800;19;20010;-81
2023/09/17 16:43:12;;;;;;;15.68;5.78;;;27.40;86.60;;;;;;7421746;19;20287;-79
2023/09/17 16:45:51;;;;;;;14.15;4.85;;;27.30;87.20;;;;;;7441907;19;20014;-79
2023/09/17 16:48:28;;;;;;;15.50;6.20;;;27.30;87.70;;;;;;7419551;19;20007;-80
2023/09/17 16:54:47;;;;;;;20.63;5.20;;;27.10;88.90;;;;;;7416176;19;20006;-80
2023/09/17 16:57:49;;;;;;;15.60;5.95;;;27.00;89.20;;;;;;7420212;19;20280;-79
2023/09/17 17:00:28;;;;;;;20.50;5.53;;;27.00;89.60;;;;;;7440962;19;20243;-80
2023/09/17 17:06:13;;;;;;;15.52;5.60;;;26.80;90.00;;;;;;7415864;19;20014;-81
2023/09/17 17:09:11;;;;;;;12.35;5.78;;;26.80;90.40;;;;;;7419422;19;20011;-80
2023/09/17 17:12:14;;;;;;;;;;;;;;;;;;;;;
2023/09/17 17:15:08;;;;;;;;;;;;;;;;;;;;;
2023/09/17 17:18:25;;;;;;;;;;;;;;;;;;;;;
2023/09/17 17:36:24;;;;;;;12.02;5.68;;;26.40;91.50;;;;;;7402171;19;20006;-79
2023/09/17 17:38:53;;;;;;;19.33;5.53;;;26.20;91.80;;;;;;7429583;19;20010;-77
2023/09/17 17:41:35;;;;;;;10.95;5.80;;;26.20;91.70;;;;;;7455191;19;19999;-79
2023/09/17 17:44:51;;;;;;;14.40;5.82;;;26.20;91.70;;;;;;7422294;19;20031;-82
2023/09/17 17:47:43;;;;;;;12.68;5.70;;;26.20;91.70;;;;;;7317981;19;2004246;-78
2023/09/17 17:50:45;;;;;;;;;;;;;;;;;;;;;
2023/09/17 17:54:26;;;;;;;;;;;;;;;;;;;;;
2023/09/17 17:57:23;;;;;;;18.38;6.50;;;26.10;91.90;;;;;;7422301;19;20384;-80
2023/09/17 18:00:05;;;;;;;;;;;;;;;;;;;;;
2023/09/17 18:02:45;;;;;;;;;;;;;;;;;;;;;
2023/09/17 18:05:33;;;;;;;;;;;;;;;;;;;;;
2023/09/17 18:08:26;;;;;;;15.95;6.15;;;26.00;92.00;;;;;;7417670;19;21056;-77
2023/09/17 18:11:12;;;;;;;;;;;;;;;;;;;;;
2023/09/17 18:13:49;;;;;;;11.23;6.13;;;26.00;92.10;;;;;;7417632;19;20010;-79
2023/09/17 18:16:21;;;;;;;12.98;6.53;;;25.90;92.10;;;;;;7436013;19;20027;-78
2023/09/17 18:19:20;;;;;;;;;;;;;;;;;;;;;
2023/09/17 18:22:17;;;;;;;15.82;6.55;;;25.70;92.30;;;;;;7438263;19;19994;-79
2023/09/17 18:25:18;;;;;;;19.40;6.35;;;25.70;92.30;;;;;;7415936;19;20029;-79
2023/09/17 18:27:57;;;;;;;16.52;6.47;;;25.70;92.30;;;;;;7415133;19;20161;-80
2023/09/17 18:36:53;;;;;;;;;;;;;;;;;;;;;
2023/09/17 18:45:48;;;;;;;15.30;6.85;;;25.70;92.20;;;;;;7413880;19;20338;-79
2023/09/17 18:48:27;;;;;;;16.20;7.10;;;25.80;92.40;;;;;;7424280;19;20023;-80
2023/09/17 18:51:06;;;;;;;18.30;7.28;;;25.70;92.30;;;;;;7421978;19;20006;-80
2023/09/17 18:54:20;;;;;;;14.27;6.68;;;25.70;92.50;;;;;;7419973;19;20020;-79
2023/09/17 18:57:40;;;;;;;;;;;;;;;;;;;;;
2023/09/17 19:00:24;;;;;;;16.92;7.00;;;25.70;92.80;;;;;;7418090;19;20015;-82
2023/09/17 19:03:22;;;;;;;;;;;;;;;;;;;;;
2023/09/17 19:06:07;;;;;;;;;;;;;;;;;;;;;
2023/09/17 19:09:09;;;;;;;;;;;;;;;;;;;;;
2023/09/17 19:12:11;;;;;;;22.40;7.55;;;25.70;93.30;;;;;;7416243;19;20383;-79
2023/09/17 19:15:01;;;;;;;19.77;7.07;;;25.60;93.40;;;;;;7414366;19;20007;-79
2023/09/17 19:18:03;;;;;;;14.57;7.28;;;25.50;93.50;;;;;;7417040;19;20041;-78
2023/09/17 19:20:56;;;;;;;;;;;;;;;;;;;;;
2023/09/17 19:23:48;;;;;;;;;;;;;;;;;;;;;
2023/09/17 19:26:35;;;;;;;22.10;11.57;;;25.40;94.00;;;;;;7443035;19;20013;-80
2023/09/17 19:29:29;;;;;;;;;;;;;;;;;;;;;
2023/09/17 19:32:06;;;;;;;19.45;8.85;;;25.50;95.00;;;;;;7449996;19;20017;-78
2023/09/17 19:38:47;;;;;;;;;;;;;;;;;;;;;
2023/09/17 20:13:41;;;;;;;;;;;;;;;;;;;;;
2023/09/17 20:17:03;;;;;;;;;;;;;;;;;;;;;
2023/09/17 20:20:18;;;;;;;;;;;22.30;97.90;;;;;;7288472;19;2020681;-80
2023/09/17 22:03:37;;;;;;;7.10;3.22;;;22.90;98.20;;;;;;7413275;19;20237;-81
2023/09/17 22:20:12;;;;;;;5.40;3.00;;;22.80;97.80;;;;;;6948705;19;5701171;-79
2023/09/17 22:23:07;;;;;;;;;;;22.70;98.40;;;;;;7423585;19;20006;-80
2023/09/17 22:28:46;;;;;;;;;;;;;;;;;;;;;
2023/09/17 22:59:17;;;;;;;5.32;2.83;;;22.80;98.20;;;;;;7422233;19;20340;-81
2023/09/17 23:05:03;;;;;;;9.63;2.92;;;22.80;98.20;;;;;;7424674;19;19911;-80
2023/09/17 23:07:34;;;;;;;7.05;3.10;;;22.80;97.90;;;;;;7451721;19;20034;-80
2023/09/17 23:10:59;;;;;;;;;;;;;;;;;;;;;
2023/09/17 23:13:43;;;;;;;;;;;;;;;;;;;;;
2023/09/17 23:16:25;;;;;;;7.00;2.90;;;22.90;97.90;;;;;;7421010;19;20006;-80
2023/09/17 23:19:09;;;;;;;4.68;2.72;;;22.90;97.70;;;;;;7420445;19;20020;-81
2023/09/17 23:21:39;;;;;;;12.77;3.22;;;22.90;97.60;;;;;;7422222;19;20009;-79
2023/09/17 23:24:32;;;;;;;8.57;3.28;;;23.00;97.60;;;;;;7432441;19;20073;-80
2023/09/17 23:27:04;;;;;;;9.95;3.30;;;23.00;97.40;;;;;;7433780;19;20114;-78
2023/09/17 23:29:35;;;;;;;8.20;3.33;;;23.00;97.40;;;;;;7423862;19;20036;-76
2023/09/17 23:32:09;;;;;;;;;;;23.00;97.60;;;;;;7445469;19;20028;-76
2023/09/17 23:34:38;;;;;;;9.15;3.45;;;23.00;97.50;;;;;;7416809;19;19923;-76
2023/09/17 23:37:07;;;;;;;6.78;3.67;;;23.00;97.30;;;;;;7407404;19;20010;-76
2023/09/17 23:39:42;;;;;;;12.85;3.88;;;23.00;97.30;;;;;;7411757;19;20014;-76